Time;durP1;ratioP1;P1;durP2;ratioP2;P2;SDS_P1;SDS_P2;PMS_P1;PMS_P2;Temp;Humidity;BMP_temperature;BMP_pressure;BME280_temperature;BME280_humidity;BME280_pressure;Samples;Min_cycle;Max_cycle;Signal;HPM_P1;HPM_P2
2021/11/24 00:02:25;;;;;;;11.40;9.68;;;;;;;;;;5123603;28;20506;-42
2021/11/24 00:04:51;;;;;;;11.65;9.32;;;;;;;;;;5115303;28;20260;-42
2021/11/24 00:07:17;;;;;;;12.35;9.30;;;;;;;;;;5123085;28;20649;-42
2021/11/24 00:09:43;;;;;;;11.43;8.82;;;;;;;;;;5113492;28;20252;-42
2021/11/24 00:12:09;;;;;;;10.13;9.02;;;;;;;;;;5121494;28;20259;-42
2021/11/24 00:14:35;;;;;;;9.57;7.78;;;;;;;;;;5117623;28;20166;-42
2021/11/24 00:17:01;;;;;;;11.75;8.45;;;;;;;;;;5120213;28;20218;-42
2021/11/24 00:19:27;;;;;;;10.23;8.38;;;;;;;;;;5121787;28;20204;-42
2021/11/24 00:21:53;;;;;;;9.95;8.32;;;;;;;;;;5121746;28;20217;-42
2021/11/24 00:24:21;;;;;;;10.25;8.50;;;;;;;;;;5121454;28;20221;-42
2021/11/24 00:26:47;;;;;;;9.23;8.32;;;;;;;;;;5116509;28;20254;-42
2021/11/24 00:29:13;;;;;;;8.75;7.72;;;;;;;;;;5119988;28;20169;-42
2021/11/24 00:31:39;;;;;;;9.68;7.93;;;;;;;;;;5122921;28;20238;-42
2021/11/24 00:34:05;;;;;;;9.45;8.32;;;;;;;;;;5120457;28;20179;-42
2021/11/24 00:36:31;;;;;;;9.10;8.00;;;;;;;;;;5114253;28;20176;-42
2021/11/24 00:38:57;;;;;;;8.88;7.65;;;;;;;;;;5114720;28;20728;-42
2021/11/24 00:41:23;;;;;;;8.82;7.55;;;;;;;;;;5123740;27;20264;-42
2021/11/24 00:43:49;;;;;;;7.38;6.68;;;;;;;;;;5120734;27;20552;-42
2021/11/24 00:46:15;;;;;;;7.68;6.88;;;;;;;;;;5123288;27;20272;-42
2021/11/24 00:48:41;;;;;;;10.02;7.43;;;;;;;;;;5130387;27;20280;-42
2021/11/24 00:51:08;;;;;;;8.57;7.63;;;;;;;;;;5128084;27;20164;-42
2021/11/24 00:53:34;;;;;;;8.82;7.43;;;;;;;;;;5120484;27;20176;-42
2021/11/24 00:56:00;;;;;;;9.65;7.88;;;;;;;;;;5123375;27;20726;-42
2021/11/24 00:58:26;;;;;;;9.30;7.95;;;;;;;;;;5125654;27;20233;-42
2021/11/24 01:00:52;;;;;;;8.95;7.68;;;;;;;;;;5121851;27;20205;-42
2021/11/24 01:03:18;;;;;;;8.60;7.47;;;;;;;;;;5126018;27;20196;-42
2021/11/24 01:05:46;;;;;;;8.20;7.25;;;;;;;;;;5125331;27;20211;-42
2021/11/24 01:08:12;;;;;;;7.95;7.15;;;;;;;;;;5128808;27;20167;-44
2021/11/24 01:10:39;;;;;;;8.35;7.45;;;;;;;;;;5117981;27;20176;-42
2021/11/24 01:13:05;;;;;;;7.60;6.90;;;;;;;;;;5123754;27;20201;-42
2021/11/24 01:15:31;;;;;;;8.48;7.18;;;;;;;;;;5116406;27;20272;-42
2021/11/24 01:17:57;;;;;;;7.85;6.70;;;;;;;;;;5119682;27;20259;-42
2021/11/24 01:20:23;;;;;;;8.35;7.53;;;;;;;;;;5125767;27;20188;-42
2021/11/24 01:22:49;;;;;;;8.55;7.20;;;;;;;;;;5126905;27;20172;-42
2021/11/24 01:25:15;;;;;;;7.70;6.90;;;;;;;;;;5117602;27;20213;-42
2021/11/24 01:27:41;;;;;;;7.80;7.00;;;;;;;;;;5120623;27;20203;-42
2021/11/24 01:30:09;;;;;;;8.48;6.65;;;;;;;;;;5127070;27;20187;-42
2021/11/24 01:32:35;;;;;;;8.68;7.30;;;;;;;;;;5119098;27;20222;-42
2021/11/24 01:35:01;;;;;;;8.45;7.55;;;;;;;;;;5126503;27;20271;-42
2021/11/24 01:37:27;;;;;;;9.70;8.05;;;;;;;;;;5112785;27;20210;-42
2021/11/24 01:39:53;;;;;;;9.07;6.45;;;;;;;;;;5121409;27;20616;-42
2021/11/24 01:42:19;;;;;;;8.90;7.07;;;;;;;;;;5120133;27;20263;-42
2021/11/24 01:44:45;;;;;;;8.00;7.20;;;;;;;;;;5119967;27;20174;-42
2021/11/24 01:47:11;;;;;;;7.40;6.55;;;;;;;;;;5127776;27;20223;-42
2021/11/24 01:49:37;;;;;;;8.23;6.55;;;;;;;;;;5132233;27;20635;-42
2021/11/24 01:52:04;;;;;;;8.05;6.75;;;;;;;;;;5122493;27;20255;-41
2021/11/24 01:54:31;;;;;;;7.50;6.40;;;;;;;;;;5127139;27;20209;-42
2021/11/24 01:56:57;;;;;;;7.53;5.88;;;;;;;;;;5118336;27;20180;-42
2021/11/24 01:59:23;;;;;;;7.35;6.55;;;;;;;;;;5133547;27;20177;-42
2021/11/24 02:01:50;;;;;;;8.00;6.32;;;;;;;;;;5125203;27;20665;-42
2021/11/24 02:04:17;;;;;;;7.50;6.35;;;;;;;;;;5123676;27;20699;-42
2021/11/24 02:06:43;;;;;;;6.30;5.70;;;;;;;;;;5117959;27;20218;-42
2021/11/24 02:09:09;;;;;;;6.63;5.90;;;;;;;;;;5118312;27;20169;-42
2021/11/24 02:11:38;;;;;;;6.85;5.75;;;;;;;;;;5115075;27;20184;-42
2021/11/24 02:14:04;;;;;;;6.18;5.57;;;;;;;;;;5120565;27;20188;-42
2021/11/24 02:16:30;;;;;;;7.15;5.90;;;;;;;;;;5126236;27;20180;-42
2021/11/24 02:18:56;;;;;;;6.28;5.63;;;;;;;;;;5131009;27;20475;-42
2021/11/24 02:21:22;;;;;;;5.97;5.38;;;;;;;;;;5124922;27;20185;-42
2021/11/24 02:23:48;;;;;;;6.85;5.85;;;;;;;;;;5125072;27;20229;-42
2021/11/24 02:26:14;;;;;;;6.07;5.32;;;;;;;;;;5114260;27;20829;-42
2021/11/24 02:28:41;;;;;;;5.65;5.10;;;;;;;;;;5121057;27;20173;-42
2021/11/24 02:31:07;;;;;;;4.90;4.40;;;;;;;;;;5120648;27;20176;-42
2021/11/24 02:33:33;;;;;;;5.20;4.70;;;;;;;;;;5123112;27;20206;-42
2021/11/24 02:35:59;;;;;;;5.85;5.25;;;;;;;;;;5118387;27;20571;-42
2021/11/24 02:38:25;;;;;;;6.22;5.20;;;;;;;;;;5116274;27;20227;-42
2021/11/24 02:40:51;;;;;;;5.75;5.15;;;;;;;;;;5126415;27;20555;-42
2021/11/24 02:43:17;;;;;;;5.78;5.18;;;;;;;;;;5120745;27;20177;-42
2021/11/24 02:45:43;;;;;;;5.30;4.80;;;;;;;;;;5125010;27;20510;-42
2021/11/24 02:48:09;;;;;;;6.93;5.43;;;;;;;;;;5119828;27;20184;-42
2021/11/24 02:50:35;;;;;;;5.88;5.22;;;;;;;;;;5119215;27;20187;-42
2021/11/24 02:53:01;;;;;;;5.68;5.10;;;;;;;;;;5122149;27;20177;-42
2021/11/24 02:55:27;;;;;;;5.65;5.15;;;;;;;;;;5113521;27;20212;-42
2021/11/24 02:57:55;;;;;;;6.53;5.03;;;;;;;;;;5111055;27;20671;-42
2021/11/24 03:00:25;;;;;;;5.63;5.07;;;;;;;;;;5122495;27;20185;-42
2021/11/24 03:02:51;;;;;;;5.97;5.22;;;;;;;;;;5112448;27;20189;-42
2021/11/24 03:05:18;;;;;;;5.10;4.60;;;;;;;;;;5122737;27;20212;-42
2021/11/24 03:07:44;;;;;;;5.53;5.03;;;;;;;;;;5125536;27;20277;-42
2021/11/24 03:10:10;;;;;;;6.13;4.70;;;;;;;;;;5124106;27;20204;-42
2021/11/24 03:12:36;;;;;;;5.85;5.05;;;;;;;;;;5123870;27;20410;-42
2021/11/24 03:15:04;;;;;;;4.95;4.45;;;;;;;;;;5121472;27;20537;-42
2021/11/24 03:17:30;;;;;;;5.22;4.72;;;;;;;;;;5120354;28;20168;-42
2021/11/24 03:19:57;;;;;;;5.70;5.13;;;;;;;;;;5119708;27;20180;-42
2021/11/24 03:22:23;;;;;;;5.35;4.85;;;;;;;;;;5119559;27;20291;-42
2021/11/24 03:24:57;;;;;;;5.25;4.75;;;;;;;;;;5119853;27;20169;-42
2021/11/24 03:27:26;;;;;;;5.32;4.82;;;;;;;;;;5112701;28;20443;-42
2021/11/24 03:29:53;;;;;;;5.22;4.72;;;;;;;;;;5121075;28;20208;-42
2021/11/24 03:32:19;;;;;;;13.02;4.57;;;;;;;;;;5122387;28;20442;-42
2021/11/24 03:34:45;;;;;;;5.93;5.32;;;;;;;;;;5122617;28;20218;-42
2021/11/24 03:37:11;;;;;;;4.82;4.32;;;;;;;;;;5110575;28;20290;-42
2021/11/24 03:39:37;;;;;;;4.22;3.83;;;;;;;;;;5122711;28;20189;-42
2021/11/24 03:42:03;;;;;;;4.90;4.40;;;;;;;;;;5124494;28;20241;-42
2021/11/24 03:44:30;;;;;;;4.85;4.43;;;;;;;;;;5112816;28;20473;-42
2021/11/24 03:46:56;;;;;;;5.28;4.78;;;;;;;;;;5114512;28;20262;-42
2021/11/24 03:49:22;;;;;;;5.10;4.60;;;;;;;;;;5117079;28;20181;-42
2021/11/24 03:51:49;;;;;;;4.88;4.38;;;;;;;;;;5123223;28;20178;-42
2021/11/24 03:54:15;;;;;;;5.32;4.82;;;;;;;;;;5115556;28;20173;-42
2021/11/24 03:56:41;;;;;;;5.32;4.20;;;;;;;;;;5111313;28;20188;-42
2021/11/24 03:59:07;;;;;;;6.13;5.00;;;;;;;;;;5121344;28;20264;-42
2021/11/24 04:01:33;;;;;;;5.47;4.97;;;;;;;;;;5116844;28;20605;-42
2021/11/24 04:03:59;;;;;;;4.82;4.32;;;;;;;;;;5118675;28;20530;-42
2021/11/24 04:06:26;;;;;;;4.60;4.10;;;;;;;;;;5111335;28;20205;-42
2021/11/24 04:08:53;;;;;;;5.47;4.95;;;;;;;;;;5118619;28;20158;-42
2021/11/24 04:11:19;;;;;;;5.22;4.20;;;;;;;;;;5120810;28;20564;-42
2021/11/24 04:13:45;;;;;;;4.75;3.88;;;;;;;;;;5122926;28;20565;-42
2021/11/24 04:16:11;;;;;;;4.30;3.90;;;;;;;;;;5121942;27;20209;-41
2021/11/24 04:18:37;;;;;;;4.90;4.25;;;;;;;;;;5121590;27;20257;-43
2021/11/24 04:21:03;;;;;;;4.80;4.40;;;;;;;;;;5104208;28;20181;-42
2021/11/24 04:23:29;;;;;;;5.53;4.65;;;;;;;;;;5125555;27;20220;-42
2021/11/24 04:25:55;;;;;;;4.63;4.22;;;;;;;;;;5115502;28;20209;-42
2021/11/24 04:28:21;;;;;;;4.53;4.13;;;;;;;;;;5124595;27;20321;-42
2021/11/24 04:30:47;;;;;;;4.53;4.13;;;;;;;;;;5118563;27;20259;-42
2021/11/24 04:33:13;;;;;;;5.18;4.40;;;;;;;;;;5113379;27;20172;-42
2021/11/24 04:35:39;;;;;;;4.43;4.03;;;;;;;;;;5112644;27;20188;-42
2021/11/24 04:38:06;;;;;;;5.30;4.40;;;;;;;;;;5119680;27;20265;-42
2021/11/24 04:40:32;;;;;;;4.75;4.35;;;;;;;;;;5118275;27;20181;-42
2021/11/24 04:43:01;;;;;;;5.40;4.90;;;;;;;;;;5117282;27;20196;-42
2021/11/24 04:45:27;;;;;;;4.68;4.28;;;;;;;;;;5121218;27;20200;-42
2021/11/24 04:47:53;;;;;;;4.77;4.27;;;;;;;;;;5117572;27;20183;-42
2021/11/24 04:50:19;;;;;;;4.97;4.47;;;;;;;;;;5128502;27;20227;-42
2021/11/24 04:52:46;;;;;;;4.50;4.10;;;;;;;;;;5119058;27;20206;-42
2021/11/24 04:55:13;;;;;;;4.95;4.32;;;;;;;;;;5121851;27;20186;-42
2021/11/24 04:57:40;;;;;;;4.88;4.38;;;;;;;;;;5116865;27;20187;-42
2021/11/24 05:00:11;;;;;;;5.00;4.50;;;;;;;;;;5122109;27;20209;-42
2021/11/24 05:02:37;;;;;;;4.47;4.07;;;;;;;;;;5116205;27;20648;-42
2021/11/24 05:05:03;;;;;;;4.43;4.03;;;;;;;;;;5120396;27;20180;-42
2021/11/24 05:07:29;;;;;;;4.88;4.38;;;;;;;;;;5106809;27;20210;-42
2021/11/24 05:09:55;;;;;;;4.70;4.20;;;;;;;;;;5112147;27;20172;-42
2021/11/24 05:12:21;;;;;;;3.90;3.60;;;;;;;;;;5107018;27;20268;-41
2021/11/24 05:14:50;;;;;;;5.43;4.35;;;;;;;;;;5119364;27;20189;-42
2021/11/24 05:17:18;;;;;;;4.30;3.90;;;;;;;;;;5117827;27;20573;-42
2021/11/24 05:19:47;;;;;;;4.93;4.22;;;;;;;;;;5122565;27;20177;-42
2021/11/24 05:22:14;;;;;;;6.07;4.93;;;;;;;;;;5127645;27;20176;-42
2021/11/24 05:24:40;;;;;;;6.88;4.45;;;;;;;;;;5128149;27;20350;-42
2021/11/24 05:27:06;;;;;;;6.20;5.03;;;;;;;;;;5117173;27;20623;-42
2021/11/24 05:29:32;;;;;;;4.85;4.25;;;;;;;;;;5126158;27;20201;-42
2021/11/24 05:31:58;;;;;;;6.68;4.82;;;;;;;;;;5125583;27;20183;-42
2021/11/24 05:34:24;;;;;;;9.15;5.70;;;;;;;;;;5122084;27;20184;-42
2021/11/24 05:36:50;;;;;;;14.57;6.35;;;;;;;;;;5128260;27;20253;-42
2021/11/24 05:39:16;;;;;;;17.88;7.20;;;;;;;;;;5117033;27;20173;-42
2021/11/24 05:41:42;;;;;;;20.20;7.75;;;;;;;;;;5125265;27;20185;-42
2021/11/24 05:44:19;;;;;;;21.65;8.65;;;;;;;;;;5127051;27;20187;-41
2021/11/24 05:46:48;;;;;;;19.85;8.77;;;;;;;;;;5120783;27;20204;-42
2021/11/24 05:49:15;;;;;;;26.50;9.07;;;;;;;;;;5127998;27;20190;-42
2021/11/24 05:51:41;;;;;;;23.00;9.93;;;;;;;;;;5125400;27;20188;-42
2021/11/24 05:54:08;;;;;;;27.30;9.95;;;;;;;;;;5127530;27;20341;-42
2021/11/24 05:56:36;;;;;;;29.73;10.68;;;;;;;;;;5121810;27;20188;-44
2021/11/24 05:59:03;;;;;;;24.70;10.00;;;;;;;;;;5115691;27;20530;-41
2021/11/24 06:01:29;;;;;;;24.52;10.27;;;;;;;;;;5130085;27;20188;-42
2021/11/24 06:03:55;;;;;;;27.63;10.25;;;;;;;;;;5126917;27;20196;-42
2021/11/24 06:06:21;;;;;;;23.95;9.80;;;;;;;;;;5107377;27;20228;-42
2021/11/24 06:08:47;;;;;;;25.25;9.98;;;;;;;;;;5126252;27;20177;-42
2021/11/24 06:11:13;;;;;;;26.02;9.77;;;;;;;;;;5114595;27;20556;-42
2021/11/24 06:13:39;;;;;;;18.25;9.20;;;;;;;;;;5115314;27;20225;-42
2021/11/24 06:16:05;;;;;;;16.58;8.85;;;;;;;;;;5111985;27;20183;-42
2021/11/24 06:18:31;;;;;;;17.58;8.95;;;;;;;;;;5125609;27;20660;-42
2021/11/24 06:20:57;;;;;;;16.08;8.70;;;;;;;;;;5118722;27;20188;-42
2021/11/24 06:23:23;;;;;;;15.52;8.55;;;;;;;;;;5117971;27;20583;-42
2021/11/24 06:25:49;;;;;;;15.63;8.95;;;;;;;;;;5128659;27;20192;-42
2021/11/24 06:28:15;;;;;;;16.88;8.40;;;;;;;;;;5134149;27;20172;-42
2021/11/24 06:30:41;;;;;;;16.25;8.07;;;;;;;;;;5127627;27;20225;-42
2021/11/24 06:33:07;;;;;;;18.95;9.23;;;;;;;;;;5107403;28;20442;-41
2021/11/24 06:35:33;;;;;;;19.52;9.32;;;;;;;;;;5114229;28;20169;-42
2021/11/24 06:37:59;;;;;;;15.20;8.52;;;;;;;;;;5114947;28;20165;-42
2021/11/24 06:40:26;;;;;;;15.63;8.05;;;;;;;;;;5097306;28;20601;-42
2021/11/24 06:42:52;;;;;;;15.80;7.53;;;;;;;;;;5109848;27;20234;-42
2021/11/24 06:45:20;;;;;;;11.93;6.97;;;;;;;;;;5128204;27;20218;-42
2021/11/24 06:47:46;;;;;;;15.88;7.40;;;;;;;;;;5114304;27;20173;-42
2021/11/24 06:50:12;;;;;;;12.50;7.20;;;;;;;;;;5114313;28;20445;-42
2021/11/24 06:52:39;;;;;;;12.75;6.97;;;;;;;;;;5097329;28;20173;-42
2021/11/24 06:55:05;;;;;;;11.75;7.00;;;;;;;;;;5113834;28;20200;-42
2021/11/24 06:57:31;;;;;;;9.07;6.55;;;;;;;;;;5113115;28;20252;-42
2021/11/24 06:59:57;;;;;;;14.43;7.30;;;;;;;;;;5114674;28;20169;-42
2021/11/24 07:02:23;;;;;;;12.60;6.93;;;;;;;;;;5113768;28;20177;-42
2021/11/24 07:04:49;;;;;;;12.77;7.53;;;;;;;;;;5113427;28;20176;-42
2021/11/24 07:07:15;;;;;;;11.00;6.72;;;;;;;;;;5106236;27;20470;-42
2021/11/24 07:09:42;;;;;;;12.70;8.45;;;;;;;;;;5113255;27;20620;-42
2021/11/24 07:12:09;;;;;;;12.25;8.18;;;;;;;;;;5121762;27;20265;-42
2021/11/24 07:14:35;;;;;;;14.27;7.78;;;;;;;;;;5116825;27;20257;-42
2021/11/24 07:17:03;;;;;;;10.88;7.43;;;;;;;;;;5126259;27;20176;-42
2021/11/24 07:19:29;;;;;;;10.77;7.40;;;;;;;;;;5125818;27;20254;-42
2021/11/24 07:21:55;;;;;;;9.88;6.20;;;;;;;;;;5110107;27;20185;-42
2021/11/24 07:24:21;;;;;;;10.52;6.40;;;;;;;;;;5113238;28;20165;-41
2021/11/24 07:26:48;;;;;;;9.93;6.60;;;;;;;;;;5113651;28;20545;-42
2021/11/24 07:29:14;;;;;;;11.95;7.05;;;;;;;;;;5102827;28;20182;-42
2021/11/24 07:31:40;;;;;;;8.20;6.10;;;;;;;;;;5093476;28;20173;-42
2021/11/24 07:34:06;;;;;;;9.75;6.35;;;;;;;;;;5104483;28;20259;-42
2021/11/24 07:36:33;;;;;;;11.05;6.88;;;;;;;;;;5122865;28;20208;-42
2021/11/24 07:38:59;;;;;;;10.20;6.22;;;;;;;;;;5121578;28;20188;-42
2021/11/24 07:41:25;;;;;;;9.70;7.20;;;;;;;;;;5123389;28;20188;-42
2021/11/24 07:43:51;;;;;;;7.60;6.10;;;;;;;;;;5114431;28;20214;-42
2021/11/24 07:46:17;;;;;;;11.98;6.60;;;;;;;;;;5122212;28;20197;-41
2021/11/24 07:48:43;;;;;;;9.52;6.57;;;;;;;;;;5119196;27;20218;-42
2021/11/24 07:51:11;;;;;;;9.40;6.53;;;;;;;;;;5121571;27;20204;-41
2021/11/24 07:53:37;;;;;;;9.48;6.35;;;;;;;;;;5119791;27;20169;-42
2021/11/24 07:56:03;;;;;;;9.30;6.20;;;;;;;;;;5112240;27;20174;-42
2021/11/24 07:58:29;;;;;;;8.15;6.47;;;;;;;;;;5109416;28;20181;-42
2021/11/24 08:00:55;;;;;;;9.38;6.65;;;;;;;;;;5117373;28;20575;-41
2021/11/24 08:03:21;;;;;;;9.07;6.20;;;;;;;;;;5117947;28;20189;-41
2021/11/24 08:05:47;;;;;;;9.48;6.25;;;;;;;;;;5113891;28;20216;-42
2021/11/24 08:08:13;;;;;;;7.55;5.88;;;;;;;;;;5117120;28;20536;-42
2021/11/24 08:10:39;;;;;;;7.45;5.85;;;;;;;;;;5103784;28;20194;-42
2021/11/24 08:13:05;;;;;;;7.38;6.22;;;;;;;;;;5097323;28;20264;-42
2021/11/24 08:15:31;;;;;;;8.45;6.32;;;;;;;;;;5097078;28;20181;-42
2021/11/24 08:17:57;;;;;;;8.38;6.30;;;;;;;;;;5103764;28;20473;-42
2021/11/24 08:20:23;;;;;;;8.68;6.88;;;;;;;;;;5118089;28;20252;-42
2021/11/24 08:22:49;;;;;;;7.75;6.28;;;;;;;;;;5117797;28;20177;-42
2021/11/24 08:25:15;;;;;;;8.95;6.32;;;;;;;;;;5117076;28;20588;-42
2021/11/24 08:27:41;;;;;;;12.10;6.30;;;;;;;;;;5113016;28;20170;-41
2021/11/24 08:30:09;;;;;;;8.25;6.10;;;;;;;;;;5097481;28;20162;-42
2021/11/24 08:32:35;;;;;;;7.70;6.18;;;;;;;;;;5097233;28;20243;-42
2021/11/24 08:35:01;;;;;;;7.60;5.38;;;;;;;;;;5096603;28;20213;-42
2021/11/24 08:37:27;;;;;;;7.00;6.15;;;;;;;;;;5098505;28;20411;-42
2021/11/24 08:39:53;;;;;;;7.75;5.78;;;;;;;;;;5089801;28;20254;-42
2021/11/24 08:42:19;;;;;;;6.65;5.55;;;;;;;;;;5099985;28;20607;-42
2021/11/24 08:44:45;;;;;;;7.85;5.88;;;;;;;;;;5116596;28;20477;-42
2021/11/24 08:47:11;;;;;;;7.60;5.70;;;;;;;;;;5117423;28;20201;-42
2021/11/24 08:49:37;;;;;;;6.63;5.40;;;;;;;;;;5097086;28;20193;-42
2021/11/24 08:52:03;;;;;;;10.07;5.95;;;;;;;;;;5096836;28;20166;-42
2021/11/24 08:54:31;;;;;;;7.78;5.70;;;;;;;;;;5096068;28;20162;-42
2021/11/24 08:56:57;;;;;;;9.52;5.78;;;;;;;;;;5096806;28;20162;-42
2021/11/24 08:59:23;;;;;;;7.95;5.88;;;;;;;;;;5114378;28;20238;-42
2021/11/24 09:01:49;;;;;;;8.27;5.93;;;;;;;;;;5097757;28;20256;-42
2021/11/24 09:04:15;;;;;;;7.22;5.40;;;;;;;;;;5116248;28;20466;-42
2021/11/24 09:06:41;;;;;;;6.97;5.13;;;;;;;;;;5116318;28;20266;-42
2021/11/24 09:09:07;;;;;;;6.53;5.22;;;;;;;;;;5115789;28;20500;-42
2021/11/24 09:11:34;;;;;;;6.47;5.53;;;;;;;;;;5117005;28;20252;-42
2021/11/24 09:14:00;;;;;;;6.47;5.50;;;;;;;;;;5116061;28;20431;-42
2021/11/24 09:16:26;;;;;;;5.75;5.07;;;;;;;;;;5116953;28;20165;-42
2021/11/24 09:18:52;;;;;;;5.88;5.13;;;;;;;;;;5103919;28;20182;-42
2021/11/24 09:21:19;;;;;;;5.80;4.93;;;;;;;;;;5096031;28;20194;-42
2021/11/24 09:23:46;;;;;;;5.10;4.55;;;;;;;;;;5095406;28;20170;-42
2021/11/24 09:26:19;;;;;;;6.45;4.78;;;;;;;;;;5096151;28;20663;-42
2021/11/24 09:28:45;;;;;;;6.18;5.03;;;;;;;;;;5107495;28;20177;-42
2021/11/24 09:31:11;;;;;;;7.35;5.03;;;;;;;;;;5116490;28;20217;-42
2021/11/24 09:33:38;;;;;;;5.25;4.53;;;;;;;;;;5115962;28;20211;-42
2021/11/24 09:36:05;;;;;;;5.63;4.68;;;;;;;;;;5116091;28;20177;-41
2021/11/24 09:38:31;;;;;;;5.22;4.63;;;;;;;;;;5110648;28;20205;-42
2021/11/24 09:41:00;;;;;;;5.70;4.47;;;;;;;;;;5102525;28;20458;-42
2021/11/24 09:43:28;;;;;;;6.13;4.82;;;;;;;;;;5095842;28;20586;-42
2021/11/24 09:45:54;;;;;;;6.22;4.68;;;;;;;;;;5095124;28;20237;-42
2021/11/24 09:48:20;;;;;;;5.18;4.65;;;;;;;;;;5103036;28;20209;-42
2021/11/24 09:50:48;;;;;;;6.03;4.60;;;;;;;;;;5116232;28;20161;-42
2021/11/24 09:53:15;;;;;;;6.10;4.65;;;;;;;;;;5116064;28;20165;-42
2021/11/24 09:55:41;;;;;;;5.05;4.55;;;;;;;;;;5115375;28;20196;-42
2021/11/24 09:58:08;;;;;;;6.43;4.85;;;;;;;;;;5110171;28;20257;-42
2021/11/24 10:00:35;;;;;;;5.82;4.35;;;;;;;;;;5095519;28;20199;-42
2021/11/24 10:03:02;;;;;;;5.43;4.68;;;;;;;;;;5095354;28;20216;-42
2021/11/24 10:05:29;;;;;;;4.97;4.15;;;;;;;;;;5097173;28;20209;-42
2021/11/24 10:07:55;;;;;;;7.05;4.30;;;;;;;;;;5114810;28;20592;-42
2021/11/24 10:10:22;;;;;;;4.45;3.90;;;;;;;;;;5115887;28;20157;-42
2021/11/24 10:12:48;;;;;;;4.38;3.97;;;;;;;;;;5115559;28;20174;-42
2021/11/24 10:15:33;;;;;;;4.53;4.00;;;;;;;;;;5114939;28;20760;-42
2021/11/24 10:18:11;;;;;;;4.30;3.90;;;;;;;;;;5111533;28;20268;-42
2021/11/24 10:20:43;;;;;;;6.22;3.55;;;;;;;;;;5095189;28;20230;-42
2021/11/24 10:23:23;;;;;;;4.53;3.95;;;;;;;;;;5095002;28;20203;-42
2021/11/24 10:25:50;;;;;;;5.05;4.10;;;;;;;;;;5094220;28;20185;-42
2021/11/24 10:28:29;;;;;;;4.60;3.67;;;;;;;;;;5100701;28;20934;-42
2021/11/24 10:30:56;;;;;;;3.83;3.30;;;;;;;;;;5115558;28;20554;-42
2021/11/24 10:33:26;;;;;;;4.38;3.70;;;;;;;;;;5115453;28;20183;-42
2021/11/24 10:36:06;;;;;;;3.70;3.25;;;;;;;;;;5114605;28;20176;-42
2021/11/24 10:38:39;;;;;;;5.15;3.58;;;;;;;;;;5110469;28;20169;-42
2021/11/24 10:41:05;;;;;;;4.22;3.40;;;;;;;;;;5092677;28;20182;-42
2021/11/24 10:43:41;;;;;;;3.65;3.33;;;;;;;;;;5094467;28;20246;-42
2021/11/24 10:46:07;;;;;;;4.18;3.78;;;;;;;;;;5094667;28;20189;-42
2021/11/24 10:48:33;;;;;;;4.05;3.20;;;;;;;;;;5102402;28;20211;-42
2021/11/24 10:51:01;;;;;;;4.03;3.45;;;;;;;;;;5114816;28;20192;-42
2021/11/24 10:53:28;;;;;;;4.82;3.53;;;;;;;;;;5115038;28;20167;-42
2021/11/24 10:55:54;;;;;;;3.63;3.33;;;;;;;;;;5114086;28;20165;-42
2021/11/24 10:58:27;;;;;;;4.25;3.30;;;;;;;;;;5108684;28;20212;-42
2021/11/24 11:00:54;;;;;;;2.97;2.75;;;;;;;;;;5094563;28;20572;-42
2021/11/24 11:03:25;;;;;;;4.53;3.10;;;;;;;;;;5097413;28;20216;-42
2021/11/24 11:05:53;;;;;;;4.28;3.55;;;;;;;;;;5100085;28;20231;-42
2021/11/24 11:08:21;;;;;;;4.35;3.40;;;;;;;;;;5113098;28;20584;-41
2021/11/24 11:10:49;;;;;;;3.40;3.10;;;;;;;;;;5105410;28;20212;-42
2021/11/24 11:13:19;;;;;;;3.33;2.97;;;;;;;;;;5094446;28;20189;-42
2021/11/24 11:15:46;;;;;;;4.40;2.85;;;;;;;;;;5102081;28;20209;-42
2021/11/24 11:18:12;;;;;;;6.45;2.97;;;;;;;;;;5111656;27;20173;-41
2021/11/24 11:20:43;;;;;;;3.70;2.67;;;;;;;;;;5121690;27;20254;-42
2021/11/24 11:23:11;;;;;;;8.48;3.40;;;;;;;;;;5117851;27;20184;-41
2021/11/24 11:25:38;;;;;;;4.38;2.58;;;;;;;;;;5112951;27;20204;-41
2021/11/24 11:28:05;;;;;;;2.85;2.65;;;;;;;;;;5121541;27;20178;-42
2021/11/24 11:30:32;;;;;;;3.50;2.50;;;;;;;;;;5105974;28;20239;-41
2021/11/24 11:32:58;;;;;;;3.20;2.90;;;;;;;;;;5108017;28;20199;-41
2021/11/24 11:35:24;;;;;;;3.17;2.88;;;;;;;;;;5116286;28;20252;-41
2021/11/24 11:37:51;;;;;;;3.60;3.17;;;;;;;;;;5123865;28;20164;-41
2021/11/24 11:40:17;;;;;;;4.82;2.88;;;;;;;;;;5110451;28;20480;-42
2021/11/24 11:42:44;;;;;;;3.47;2.72;;;;;;;;;;5110608;28;20214;-42
2021/11/24 11:45:12;;;;;;;3.17;2.65;;;;;;;;;;5124393;28;20213;-41
2021/11/24 11:47:41;;;;;;;4.43;2.70;;;;;;;;;;5118597;28;20221;-41
2021/11/24 11:50:07;;;;;;;4.38;3.05;;;;;;;;;;5119092;28;20212;-41
2021/11/24 11:52:33;;;;;;;4.85;2.78;;;;;;;;;;5125251;28;20213;-42
2021/11/24 11:55:18;;;;;;;3.72;2.80;;;;;;;;;;5117330;28;20176;-41
2021/11/24 11:57:44;;;;;;;2.83;2.55;;;;;;;;;;5094325;28;20180;-42
2021/11/24 12:00:10;;;;;;;4.95;2.67;;;;;;;;;;5122980;28;20181;-41
2021/11/24 12:02:58;;;;;;;2.70;2.50;;;;;;;;;;5113032;28;20208;-41
2021/11/24 12:05:24;;;;;;;3.20;2.90;;;;;;;;;;5121079;28;20241;-41
2021/11/24 12:08:10;;;;;;;3.67;3.15;;;;;;;;;;5111071;28;20469;-42
2021/11/24 12:10:54;;;;;;;3.22;2.88;;;;;;;;;;5118360;28;20614;-41
2021/11/24 12:13:28;;;;;;;4.95;2.90;;;;;;;;;;5125467;28;20259;-41
2021/11/24 12:15:54;;;;;;;3.42;3.13;;;;;;;;;;5116434;28;20606;-41
2021/11/24 12:18:20;;;;;;;4.45;3.28;;;;;;;;;;5122737;28;20267;-42
2021/11/24 12:20:48;;;;;;;4.28;2.97;;;;;;;;;;5127015;28;20179;-42
2021/11/24 12:23:15;;;;;;;3.20;2.90;;;;;;;;;;5117608;28;20216;-41
2021/11/24 12:25:42;;;;;;;4.43;2.80;;;;;;;;;;5125066;28;20230;-41
2021/11/24 12:28:10;;;;;;;3.88;3.47;;;;;;;;;;5116403;28;20180;-41
2021/11/24 12:30:37;;;;;;;5.35;4.07;;;;;;;;;;5114073;28;20540;-42
2021/11/24 12:33:06;;;;;;;3.67;3.33;;;;;;;;;;5113733;28;20154;-41
2021/11/24 12:35:33;;;;;;;3.72;3.40;;;;;;;;;;5114018;28;20169;-41
2021/11/24 12:37:59;;;;;;;3.33;3.03;;;;;;;;;;5103160;28;20196;-41
2021/11/24 12:40:26;;;;;;;3.65;3.33;;;;;;;;;;5117012;28;20449;-41
2021/11/24 12:42:56;;;;;;;3.35;3.05;;;;;;;;;;5117643;28;20540;-41
2021/11/24 12:45:22;;;;;;;3.20;2.90;;;;;;;;;;5116679;28;20564;-41
2021/11/24 12:47:57;;;;;;;3.72;3.13;;;;;;;;;;5116123;28;20212;-42
2021/11/24 12:50:24;;;;;;;4.18;3.20;;;;;;;;;;5117593;28;20200;-41
2021/11/24 12:52:57;;;;;;;3.47;3.13;;;;;;;;;;5109848;28;20574;-41
2021/11/24 12:55:23;;;;;;;3.85;3.45;;;;;;;;;;5096424;28;20503;-41
2021/11/24 12:57:49;;;;;;;5.95;3.30;;;;;;;;;;5108880;28;20209;-41
2021/11/24 13:00:24;;;;;;;3.95;3.00;;;;;;;;;;5117372;28;20253;-41
2021/11/24 13:02:50;;;;;;;3.83;3.40;;;;;;;;;;5117285;28;20189;-41
2021/11/24 13:05:16;;;;;;;3.50;3.20;;;;;;;;;;5116398;28;20222;-41
2021/11/24 13:07:49;;;;;;;3.90;3.20;;;;;;;;;;5114614;28;20177;-42
2021/11/24 13:10:16;;;;;;;3.80;3.40;;;;;;;;;;5109707;27;20182;-42
2021/11/24 13:12:42;;;;;;;3.20;2.90;;;;;;;;;;5127945;27;20173;-41
2021/11/24 13:15:09;;;;;;;3.92;3.38;;;;;;;;;;5122685;27;20180;-41
2021/11/24 13:17:39;;;;;;;4.30;3.00;;;;;;;;;;5115401;27;20556;-41
2021/11/24 13:20:08;;;;;;;3.83;3.22;;;;;;;;;;5108769;27;20200;-41
2021/11/24 13:22:50;;;;;;;3.40;3.10;;;;;;;;;;5113594;28;20565;-41
2021/11/24 13:25:28;;;;;;;4.35;3.33;;;;;;;;;;5119773;27;20180;-41
2021/11/24 13:27:54;;;;;;;3.72;3.33;;;;;;;;;;5126625;27;20176;-41
2021/11/24 13:30:32;;;;;;;6.10;3.35;;;;;;;;;;5120342;27;20283;-42
2021/11/24 13:32:58;;;;;;;3.83;3.10;;;;;;;;;;5126106;27;20208;-41
2021/11/24 13:35:24;;;;;;;3.35;3.05;;;;;;;;;;5109044;27;20213;-41
2021/11/24 13:37:51;;;;;;;3.67;3.38;;;;;;;;;;5107735;27;20226;-41
2021/11/24 13:40:32;;;;;;;3.63;3.30;;;;;;;;;;5119961;27;20183;-41
2021/11/24 13:42:58;;;;;;;5.72;3.10;;;;;;;;;;5121946;27;20200;-41
2021/11/24 13:45:41;;;;;;;3.92;2.97;;;;;;;;;;5124317;27;20203;-42
2021/11/24 13:48:11;;;;;;;3.10;2.78;;;;;;;;;;5119554;27;20203;-41
2021/11/24 13:50:37;;;;;;;3.13;2.80;;;;;;;;;;5101149;27;20180;-42
2021/11/24 13:53:19;;;;;;;3.85;3.40;;;;;;;;;;5113057;27;20186;-41
2021/11/24 13:55:45;;;;;;;3.37;3.03;;;;;;;;;;5094733;28;20189;-41
2021/11/24 13:58:11;;;;;;;3.60;2.80;;;;;;;;;;5098722;28;20185;-41
2021/11/24 14:00:37;;;;;;;3.05;2.85;;;;;;;;;;5105954;28;20189;-42
2021/11/24 14:03:03;;;;;;;3.40;3.10;;;;;;;;;;5099959;28;20576;-41
2021/11/24 14:05:34;;;;;;;3.30;2.85;;;;;;;;;;5105392;28;20189;-41
2021/11/24 14:08:00;;;;;;;3.33;2.92;;;;;;;;;;5108299;28;20323;-41
2021/11/24 14:10:29;;;;;;;4.05;2.90;;;;;;;;;;5095406;28;20219;-41
2021/11/24 14:12:57;;;;;;;4.03;3.55;;;;;;;;;;5095329;28;20214;-41
2021/11/24 14:15:24;;;;;;;3.35;3.05;;;;;;;;;;5100640;28;20177;-42
2021/11/24 14:17:55;;;;;;;4.32;2.83;;;;;;;;;;5105043;27;20184;-42
2021/11/24 14:20:21;;;;;;;3.20;2.80;;;;;;;;;;5106328;27;20291;-42
2021/11/24 14:22:52;;;;;;;5.38;2.95;;;;;;;;;;5106116;27;20307;-42
2021/11/24 14:25:19;;;;;;;5.28;2.50;;;;;;;;;;5095469;28;20264;-42
2021/11/24 14:27:47;;;;;;;3.85;2.45;;;;;;;;;;5102425;27;20165;-42
2021/11/24 14:30:14;;;;;;;7.05;2.70;;;;;;;;;;5099763;28;20163;-42
2021/11/24 14:32:40;;;;;;;2.80;2.55;;;;;;;;;;5102600;28;20173;-43
2021/11/24 14:35:07;;;;;;;4.65;2.60;;;;;;;;;;5105869;28;20188;-43
2021/11/24 14:37:33;;;;;;;5.43;2.80;;;;;;;;;;5113717;27;20177;-43
2021/11/24 14:39:59;;;;;;;3.90;2.92;;;;;;;;;;5118533;27;20339;-43
2021/11/24 14:42:25;;;;;;;8.18;2.40;;;;;;;;;;5115805;27;20173;-43